Time;durP1;ratioP1;P1;durP2;ratioP2;P2;SDS_P1;SDS_P2;PMS_P1;PMS_P2;Temp;Humidity;BMP_temperature;BMP_pressure;BME280_temperature;BME280_humidity;BME280_pressure;Samples;Min_cycle;Max_cycle;Signal;HPM_P1;HPM_P2
2023/10/13 00:02:04;;;;;;;;;;;23.20;56.60;;;;;;5095176;28;19968;-61
2023/10/13 00:04:35;;;;;;;;;;;23.20;56.60;;;;;;5095445;28;19930;-61
2023/10/13 00:07:04;;;;;;;;;;;23.20;56.60;;;;;;5095445;28;19931;-61
2023/10/13 00:09:37;;;;;;;;;;;23.20;56.60;;;;;;5095602;28;19954;-61
2023/10/13 00:12:09;;;;;;;;;;;23.20;56.60;;;;;;5095638;28;20019;-61
2023/10/13 00:14:37;;;;;;;;;;;23.20;56.60;;;;;;5094113;28;19924;-61
2023/10/13 00:17:05;;;;;;;;;;;23.20;56.60;;;;;;5094409;28;19978;-61
2023/10/13 00:19:52;;;;;;;;;;;23.20;56.50;;;;;;5095753;28;19969;-61
2023/10/13 00:22:22;;;;;;;;;;;23.20;56.50;;;;;;5095113;28;19928;-61
2023/10/13 00:24:51;;;;;;;;;;;23.20;56.50;;;;;;5095536;28;19931;-61
2023/10/13 00:27:41;;;;;;;;;;;23.20;56.50;;;;;;5095150;28;19931;-61
2023/10/13 00:32:57;;;;;;;;;;;23.20;56.40;;;;;;5094068;28;20368;-61
2023/10/13 00:35:25;;;;;;;;;;;23.20;56.40;;;;;;5094120;28;20020;-61
2023/10/13 00:37:55;;;;;;;;;;;23.20;56.40;;;;;;5094668;28;20356;-61
2023/10/13 00:40:42;;;;;;;;;;;23.20;56.40;;;;;;5094860;28;19924;-61
2023/10/13 00:46:07;;;;;;;;;;;23.10;56.40;;;;;;5093832;28;19931;-61
2023/10/13 00:48:42;;;;;;;;;;;23.20;56.50;;;;;;5094009;28;20364;-61
2023/10/13 00:51:21;;;;;;;;;;;23.10;56.40;;;;;;5094043;28;19924;-61
2023/10/13 00:53:50;;;;;;;;;;;23.10;56.40;;;;;;5094217;28;19971;-61
2023/10/13 00:56:19;;;;;;;;;;;23.10;56.40;;;;;;5094022;28;20343;-61
2023/10/13 00:58:53;;;;;;;;;;;23.10;56.40;;;;;;5094174;28;20288;-61
2023/10/13 01:01:29;;;;;;;;;;;23.10;56.40;;;;;;5094443;28;19928;-61
2023/10/13 01:03:59;;;;;;;;;;;23.10;56.40;;;;;;5094861;28;20314;-61
2023/10/13 01:06:27;;;;;;;;;;;23.10;56.40;;;;;;5093965;28;19924;-61
2023/10/13 01:08:59;;;;;;;;;;;23.10;56.40;;;;;;5093748;28;19924;-61
2023/10/13 01:11:29;;;;;;;;;;;23.10;56.40;;;;;;5094234;28;20048;-61
2023/10/13 01:13:56;;;;;;;;;;;23.10;56.40;;;;;;5094459;28;20380;-61
2023/10/13 01:16:26;;;;;;;;;;;23.10;56.40;;;;;;5093715;28;19924;-61
2023/10/13 01:18:59;;;;;;;;;;;23.10;56.40;;;;;;5092968;28;19925;-61
2023/10/13 01:21:29;;;;;;;;;;;23.10;56.40;;;;;;5092512;28;19924;-61
2023/10/13 01:23:56;;;;;;;;;;;23.10;56.40;;;;;;5093416;28;19924;-61
2023/10/13 01:26:24;;;;;;;;;;;23.10;56.40;;;;;;5094343;28;20391;-61
2023/10/13 01:28:51;;;;;;;;;;;23.10;56.40;;;;;;5091958;28;19935;-61
2023/10/13 01:31:26;;;;;;;;;;;23.10;56.40;;;;;;5093533;28;19924;-61
2023/10/13 01:33:54;;;;;;;;;;;23.10;56.40;;;;;;5092502;28;19931;-61
2023/10/13 01:36:21;;;;;;;;;;;23.10;56.40;;;;;;5092605;28;19928;-63
2023/10/13 01:38:49;;;;;;;;;;;23.10;56.40;;;;;;5093203;28;20426;-63
2023/10/13 01:41:17;;;;;;;;;;;23.10;56.30;;;;;;5093384;28;19967;-61
2023/10/13 01:43:44;;;;;;;;;;;23.10;56.30;;;;;;5092218;28;20264;-62
2023/10/13 01:46:13;;;;;;;;;;;23.20;56.30;;;;;;5093384;28;19985;-61
2023/10/13 01:48:41;;;;;;;;;;;23.10;56.30;;;;;;5092901;28;19978;-62
2023/10/13 01:51:10;;;;;;;;;;;23.10;56.30;;;;;;5092548;28;19924;-63
2023/10/13 01:53:37;;;;;;;;;;;23.10;56.20;;;;;;5093812;28;20014;-62
2023/10/13 01:56:11;;;;;;;;;;;23.10;56.20;;;;;;5093455;28;19974;-64
2023/10/13 01:58:42;;;;;;;;;;;23.10;56.20;;;;;;5092699;28;19928;-61
2023/10/13 02:01:10;;;;;;;;;;;23.10;56.30;;;;;;5092222;28;19924;-61
2023/10/13 02:03:48;;;;;;;;;;;23.10;56.30;;;;;;5093676;28;19975;-61
2023/10/13 02:06:23;;;;;;;;;;;23.10;56.30;;;;;;5093115;28;19979;-61
2023/10/13 02:08:56;;;;;;;;;;;23.10;56.30;;;;;;5092944;28;19928;-61
2023/10/13 02:11:24;;;;;;;;;;;23.10;56.30;;;;;;5092648;28;19924;-61
2023/10/13 02:13:51;;;;;;;;;;;23.10;56.30;;;;;;5092940;28;19977;-62
2023/10/13 02:16:22;;;;;;;;;;;23.10;56.30;;;;;;5093032;28;19971;-61
2023/10/13 02:18:51;;;;;;;;;;;23.10;56.20;;;;;;5093425;28;19931;-61
2023/10/13 02:21:18;;;;;;;;;;;23.10;56.20;;;;;;5093336;28;19971;-61
2023/10/13 02:23:45;;;;;;;;;;;23.10;56.20;;;;;;5092551;28;19924;-62
2023/10/13 02:26:15;;;;;;;;;;;23.10;56.20;;;;;;5093744;28;19969;-61
2023/10/13 02:28:51;;;;;;;;;;;23.10;56.30;;;;;;5093231;28;20279;-61
2023/10/13 02:31:19;;;;;;;;;;;23.10;56.20;;;;;;5092971;28;20367;-61
2023/10/13 02:33:46;;;;;;;;;;;23.10;56.20;;;;;;5092867;28;19931;-63
2023/10/13 02:36:19;;;;;;;;;;;23.10;56.20;;;;;;5092460;28;20015;-61
2023/10/13 02:38:46;;;;;;;;;;;23.10;56.20;;;;;;5092790;28;19924;-61
2023/10/13 02:41:25;;;;;;;;;;;23.10;56.20;;;;;;5093010;28;19931;-61
2023/10/13 02:43:52;;;;;;;;;;;23.10;56.20;;;;;;5093512;28;19936;-62
2023/10/13 02:46:30;;;;;;;;;;;23.10;56.20;;;;;;5092151;28;19928;-61
2023/10/13 02:49:01;;;;;;;;;;;23.10;56.20;;;;;;5092970;28;19924;-61
2023/10/13 02:51:35;;;;;;;;;;;23.00;56.20;;;;;;5093050;28;20292;-61
2023/10/13 02:54:18;;;;;;;;;;;23.10;56.20;;;;;;5092582;28;19924;-61
2023/10/13 02:56:56;;;;;;;;;;;23.00;56.20;;;;;;5092531;28;19924;-62
2023/10/13 03:02:28;;;;;;;;;;;23.10;56.20;;;;;;5096300;28;19931;-62
2023/10/13 03:04:59;;;;;;;;;;;23.10;56.20;;;;;;5095739;28;20015;-62
2023/10/13 03:07:30;;;;;;;;;;;23.10;56.20;;;;;;5096704;28;19971;-61
2023/10/13 03:10:00;;;;;;;;;;;23.10;56.10;;;;;;5096057;28;19969;-62
2023/10/13 03:12:33;;;;;;;;;;;23.10;56.10;;;;;;5095839;28;19931;-62
2023/10/13 03:15:19;;;;;;;;;;;23.10;56.10;;;;;;5095160;28;19975;-62
2023/10/13 03:17:47;;;;;;;;;;;23.10;56.10;;;;;;5096170;28;19924;-61
2023/10/13 03:20:16;;;;;;;;;;;23.10;56.00;;;;;;5094288;28;19965;-61
2023/10/13 03:22:46;;;;;;;;;;;23.10;56.00;;;;;;5094705;28;19977;-61
2023/10/13 03:25:29;;;;;;;;;;;23.10;56.00;;;;;;5094784;28;20216;-61
2023/10/13 03:28:04;;;;;;;;;;;23.10;56.00;;;;;;5095759;28;20406;-62
2023/10/13 03:30:35;;;;;;;;;;;23.10;56.00;;;;;;5105916;28;19927;-61
2023/10/13 03:33:06;;;;;;;;;;;23.10;56.10;;;;;;5116116;28;19927;-62
2023/10/13 03:35:37;;;;;;;;;;;23.10;56.00;;;;;;5116540;28;20372;-62
2023/10/13 03:38:16;;;;;;;;;;;23.10;56.00;;;;;;5080523;28;20388;-62
2023/10/13 03:40:48;;;;;;;;;;;23.10;56.00;;;;;;5075456;28;19966;-61
2023/10/13 03:43:21;;;;;;;;;;;23.10;56.00;;;;;;5079567;28;20376;-62
2023/10/13 03:46:00;;;;;;;;;;;23.10;56.00;;;;;;5087493;28;20019;-61
2023/10/13 03:48:28;;;;;;;;;;;23.10;56.00;;;;;;5094736;28;19931;-62
2023/10/13 03:51:03;;;;;;;;;;;23.10;56.60;;;;;;5096127;28;20291;-62
2023/10/13 03:53:34;;;;;;;;;;;23.10;56.00;;;;;;5096221;28;19971;-61
2023/10/13 03:56:15;;;;;;;;;;;23.10;56.00;;;;;;5095018;28;19931;-62
2023/10/13 03:58:45;;;;;;;;;;;23.10;56.10;;;;;;5095776;28;20295;-61
2023/10/13 04:01:17;;;;;;;;;;;23.10;56.10;;;;;;5094650;28;19930;-61
2023/10/13 04:03:57;;;;;;;;;;;23.10;56.10;;;;;;5092902;28;19924;-62
2023/10/13 04:06:51;;;;;;;;;;;23.00;56.00;;;;;;5075287;28;20020;-61
2023/10/13 04:12:21;;;;;;;;;;;23.00;56.00;;;;;;5073416;28;19986;-63
2023/10/13 04:17:40;;;;;;;;;;;23.00;56.00;;;;;;5073844;28;19924;-61
2023/10/13 04:20:12;;;;;;;;;;;23.00;56.00;;;;;;5075379;28;19925;-61
2023/10/13 04:23:17;;;;;;;;;;;23.00;56.00;;;;;;5073761;28;19928;-62
2023/10/13 04:28:33;;;;;;;;;;;23.00;55.90;;;;;;5073968;28;19925;-62
2023/10/13 04:31:11;;;;;;;;;;;23.00;55.90;;;;;;5074057;28;19925;-61
2023/10/13 04:33:52;;;;;;;;;;;23.00;55.90;;;;;;5074456;28;19925;-61
2023/10/13 04:39:10;;;;;;;;;;;23.10;55.80;;;;;;5085762;28;19926;-61
2023/10/13 04:41:42;;;;;;;;;;;23.10;55.80;;;;;;5088150;28;19994;-61
2023/10/13 04:47:08;;;;;;;;;;;23.10;55.60;;;;;;5082420;28;19967;-61
2023/10/13 04:49:52;;;;;;;;;;;23.00;55.50;;;;;;5081111;28;20401;-61
2023/10/13 04:55:17;;;;;;;;;;;23.00;55.60;;;;;;5091967;28;19935;-60
2023/10/13 04:57:50;;;;;;;;;;;23.00;55.50;;;;;;5088262;28;19924;-60
2023/10/13 05:03:40;;;;;;;;;;;23.00;55.50;;;;;;5081281;28;19924;-61
2023/10/13 05:05:53;;;;;;;;;;;23.00;55.70;;;;;;5088003;28;19930;-61
2023/10/13 05:47:48;;;;;;;;;;;23.40;55.30;;;;;;5083338;28;20524;-63
2023/10/13 06:29:19;;;;;;;;;;;23.80;53.80;;;;;;5073823;28;20003;-60
2023/10/13 06:31:49;;;;;;;;;;;23.90;53.90;;;;;;5076514;28;20027;-61
2023/10/13 06:34:21;;;;;;;;;;;23.90;53.70;;;;;;5076676;28;19931;-60
2023/10/13 06:36:58;;;;;;;;;;;23.90;53.60;;;;;;5080448;28;20296;-62
2023/10/13 06:39:35;;;;;;;;;;;23.90;53.50;;;;;;5077880;28;21769;-62
2023/10/13 06:42:02;;;;;;;;;;;23.90;53.50;;;;;;5076556;28;20091;-61
2023/10/13 06:44:32;;;;;;;;;;;24.00;53.60;;;;;;5073365;28;20327;-62
2023/10/13 06:47:03;;;;;;;;;;;24.00;53.50;;;;;;5076500;28;20300;-60
2023/10/13 06:49:38;;;;;;;;;;;24.10;53.60;;;;;;5078448;28;19932;-61
2023/10/13 06:52:06;;;;;;;;;;;24.10;53.80;;;;;;5074421;28;19924;-59
2023/10/13 06:54:34;;;;;;;;;;;24.10;53.90;;;;;;5080142;28;19924;-59
2023/10/13 06:57:03;;;;;;;;;;;24.20;53.80;;;;;;5076737;28;19932;-60
2023/10/13 06:59:32;;;;;;;;;;;24.30;53.60;;;;;;5075016;28;20435;-62
2023/10/13 07:02:05;;;;;;;;;;;24.30;53.50;;;;;;5074746;28;19938;-61
2023/10/13 07:04:56;;;;;;;;;;;24.30;53.60;;;;;;5071826;28;20390;-64
2023/10/13 07:07:24;;;;;;;;;;;24.40;53.50;;;;;;5076417;28;19975;-62
2023/10/13 07:09:55;;;;;;;;;;;24.50;53.60;;;;;;5073025;28;19928;-64
2023/10/13 07:12:26;;;;;;;;;;;24.50;53.20;;;;;;5069491;28;19932;-62
2023/10/13 07:15:10;;;;;;;;;;;24.50;52.90;;;;;;5068211;28;19932;-63
2023/10/13 07:17:40;;;;;;;;;;;24.50;53.10;;;;;;5068938;28;20008;-63
2023/10/13 07:20:15;;;;;;;;;;;24.60;53.00;;;;;;5069301;28;20395;-63
2023/10/13 07:22:54;;;;;;;;;;;24.60;52.90;;;;;;5070665;28;20030;-61
2023/10/13 07:25:26;;;;;;;;;;;24.70;52.80;;;;;;5072238;28;19938;-61
2023/10/13 07:27:54;;;;;;;;;;;24.70;53.30;;;;;;5070148;28;19982;-64
2023/10/13 07:30:26;;;;;;;;;;;24.70;52.80;;;;;;5070826;28;19932;-63
2023/10/13 07:32:59;;;;;;;;;;;24.70;52.70;;;;;;5070362;28;20451;-60
2023/10/13 07:35:30;;;;;;;;;;;24.70;52.60;;;;;;5067527;28;19990;-62
2023/10/13 07:37:59;;;;;;;;;;;24.70;52.60;;;;;;5063617;28;19939;-63
2023/10/13 07:40:41;;;;;;;;;;;24.70;52.70;;;;;;5069138;28;20011;-63
2023/10/13 07:43:10;;;;;;;;;;;24.70;52.50;;;;;;5074747;28;19933;-63
2023/10/13 07:45:38;;;;;;;;;;;24.70;52.60;;;;;;5075088;28;19928;-62
2023/10/13 07:48:16;;;;;;;;;;;24.70;52.70;;;;;;5073213;28;20342;-60
2023/10/13 07:50:45;;;;;;;;;;;24.70;52.80;;;;;;5076049;28;19932;-61
2023/10/13 07:53:19;;;;;;;;;;;24.70;53.00;;;;;;5078850;28;20234;-62
2023/10/13 07:55:46;;;;;;;;;;;24.70;53.00;;;;;;5070835;28;20513;-63
2023/10/13 07:58:14;;;;;;;;;;;24.70;53.00;;;;;;5075468;28;19932;-63
2023/10/13 08:00:46;;;;;;;;;;;24.80;53.00;;;;;;5073468;28;19932;-62
2023/10/13 08:03:32;;;;;;;;;;;24.80;53.00;;;;;;5076822;28;19924;-64
2023/10/13 08:06:06;;;;;;;;;;;24.80;52.90;;;;;;5077465;28;20367;-63
2023/10/13 08:08:40;;;;;;;;;;;24.80;53.10;;;;;;5076305;28;19977;-62
2023/10/13 08:11:24;;;;;;;;;;;24.80;53.70;;;;;;5076202;28;20373;-63
2023/10/13 08:13:59;;;;;;;;;;;24.80;53.30;;;;;;5076116;28;19960;-64
2023/10/13 08:16:52;;;;;;;;;;;24.90;53.20;;;;;;5074697;28;19928;-69
2023/10/13 08:19:26;;;;;;;;;;;24.90;53.10;;;;;;5071171;28;19987;-66
2023/10/13 08:25:14;;;;;;;;;;;25.00;53.20;;;;;;5075031;28;20392;-65
2023/10/13 08:27:36;;;;;;;;;;;24.90;53.30;;;;;;5076674;28;20436;-64
2023/10/13 08:32:58;;;;;;;;;;;24.90;52.90;;;;;;5079229;28;20300;-64
2023/10/13 08:35:34;;;;;;;;;;;24.90;53.00;;;;;;5072180;28;20400;-64
2023/10/13 08:38:13;;;;;;;;;;;24.90;53.00;;;;;;5070739;28;20409;-63
2023/10/13 08:43:50;;;;;;;;;;;24.90;53.10;;;;;;5073795;28;19975;-62
2023/10/13 08:46:34;;;;;;;;;;;24.90;53.30;;;;;;5073809;28;19935;-63
2023/10/13 08:49:08;;;;;;;;;;;24.90;53.30;;;;;;5073941;28;19936;-63
2023/10/13 08:51:49;;;;;;;;;;;24.90;53.50;;;;;;5075343;28;19977;-63
2023/10/13 08:54:33;;;;;;;;;;;24.80;53.90;;;;;;5075265;28;19931;-63
2023/10/13 08:59:55;;;;;;;;;;;24.70;54.10;;;;;;5070531;28;19977;-62
2023/10/13 09:02:59;;;;;;;;;;;24.70;53.90;;;;;;5072090;28;20373;-66
2023/10/13 09:05:41;;;;;;;;;;;24.70;54.00;;;;;;5075366;28;19958;-65
2023/10/13 09:08:08;;;;;;;;;;;24.70;54.10;;;;;;5074574;28;19978;-63
2023/10/13 09:10:44;;;;;;;;;;;24.70;54.10;;;;;;5068743;28;19931;-61
2023/10/13 09:13:20;;;;;;;;;;;24.70;54.00;;;;;;5072158;28;19932;-62
2023/10/13 09:16:00;;;;;;;;;;;24.70;54.10;;;;;;5082807;28;19925;-63
2023/10/13 09:18:42;;;;;;;;;;;24.70;54.10;;;;;;5075094;28;19968;-64
2023/10/13 09:24:16;;;;;;;;;;;24.70;54.00;;;;;;5070183;28;19990;-65
2023/10/13 09:26:44;;;;;;;;;;;24.70;54.00;;;;;;5077268;28;20338;-64
2023/10/13 09:29:18;;;;;;;;;;;24.70;54.00;;;;;;5070742;28;20347;-63
2023/10/13 09:31:48;;;;;;;;;;;24.70;54.10;;;;;;5076326;28;19939;-63
2023/10/13 09:34:20;;;;;;;;;;;24.70;54.10;;;;;;5073949;28;20023;-63
2023/10/13 09:36:47;;;;;;;;;;;24.70;54.00;;;;;;5077998;28;20369;-64
2023/10/13 09:39:29;;;;;;;;;;;24.70;54.00;;;;;;5079290;28;20060;-62
2023/10/13 09:41:59;;;;;;;;;;;24.70;54.00;;;;;;5083345;28;19936;-62
2023/10/13 09:44:31;;;;;;;;;;;24.80;54.20;;;;;;5073769;28;19935;-63
2023/10/13 09:47:06;;;;;;;;;;;24.70;54.20;;;;;;5080924;28;20062;-64
2023/10/13 09:49:45;;;;;;;;;;;24.80;54.20;;;;;;5069893;28;20436;-64
2023/10/13 09:52:19;;;;;;;;;;;24.80;54.30;;;;;;5076018;28;20284;-64
2023/10/13 09:55:09;;;;;;;;;;;24.80;54.30;;;;;;5078239;28;19924;-63
2023/10/13 09:57:44;;;;;;;;;;;24.70;54.40;;;;;;5071402;28;19994;-62
2023/10/13 10:06:05;;;;;;;;;;;24.80;54.50;;;;;;5078868;28;19924;-64
2023/10/13 10:08:34;;;;;;;;;;;24.80;54.50;;;;;;5078521;28;19925;-64
2023/10/13 10:11:22;;;;;;;;;;;24.80;54.60;;;;;;5089261;28;19931;-68
2023/10/13 10:14:08;;;;;;;;;;;24.80;54.50;;;;;;5083055;28;20312;-66
2023/10/13 10:16:42;;;;;;;;;;;24.80;54.40;;;;;;5088260;28;19928;-64
2023/10/13 10:19:09;;;;;;;;;;;24.80;54.30;;;;;;5085686;28;19924;-65
2023/10/13 10:21:37;;;;;;;;;;;24.80;54.30;;;;;;5086788;28;19928;-63
2023/10/13 10:24:14;;;;;;;;;;;24.80;54.20;;;;;;5084096;28;20339;-65
2023/10/13 10:26:54;;;;;;;;;;;24.80;54.40;;;;;;5086631;28;20047;-65
2023/10/13 10:29:21;;;;;;;;;;;24.80;54.50;;;;;;5076470;28;19969;-67
2023/10/13 10:31:49;;;;;;;;;;;24.80;54.50;;;;;;5072999;28;19971;-66
2023/10/13 10:34:19;;;;;;;;;;;24.90;54.40;;;;;;5082157;28;19924;-67
2023/10/13 10:36:53;;;;;;;;;;;24.90;54.20;;;;;;5081265;28;19932;-68
2023/10/13 10:39:33;;;;;;;;;;;24.90;54.30;;;;;;5081045;28;20295;-67
2023/10/13 10:42:15;;;;;;;;;;;24.90;54.50;;;;;;5077438;28;19924;-66
2023/10/13 10:44:47;;;;;;;;;;;24.90;54.60;;;;;;5078009;28;20443;-67
2023/10/13 10:47:41;;;;;;;;;;;24.90;54.40;;;;;;5079164;28;19980;-65
2023/10/13 10:52:50;;;;;;;;;;;25.00;54.30;;;;;;5076726;28;20043;-65
2023/10/13 10:55:20;;;;;;;;;;;25.00;54.20;;;;;;5074099;28;20027;-67
2023/10/13 10:57:58;;;;;;;;;;;25.10;54.50;;;;;;5066144;28;20021;-65
2023/10/13 11:00:36;;;;;;;;;;;25.10;54.20;;;;;;5072835;28;20361;-68
2023/10/13 11:03:04;;;;;;;;;;;25.20;54.10;;;;;;5066555;28;19955;-67
2023/10/13 11:05:42;;;;;;;;;;;25.20;54.10;;;;;;5070968;28;20027;-68
2023/10/13 11:08:24;;;;;;;;;;;25.20;54.00;;;;;;5074498;28;19924;-68
2023/10/13 11:10:51;;;;;;;;;;;25.30;54.00;;;;;;5075679;28;20292;-65
2023/10/13 11:13:22;;;;;;;;;;;25.30;53.80;;;;;;5074514;28;19933;-68
2023/10/13 11:15:52;;;;;;;;;;;25.30;53.80;;;;;;5076179;28;19924;-67
2023/10/13 11:18:33;;;;;;;;;;;25.30;53.80;;;;;;5080841;28;19925;-69
2023/10/13 11:21:06;;;;;;;;;;;25.30;53.70;;;;;;5077967;28;20019;-66
2023/10/13 11:23:36;;;;;;;;;;;25.30;53.50;;;;;;5077427;28;19933;-70
2023/10/13 11:26:04;;;;;;;;;;;25.40;53.60;;;;;;5080617;28;19924;-68
2023/10/13 11:28:34;;;;;;;;;;;25.40;53.40;;;;;;5078114;28;19931;-67
2023/10/13 11:31:10;;;;;;;;;;;25.40;53.40;;;;;;5083024;28;19928;-67
2023/10/13 11:33:49;;;;;;;;;;;25.40;53.40;;;;;;5078591;28;19928;-68
2023/10/13 11:36:31;;;;;;;;;;;25.40;53.30;;;;;;5077536;28;19967;-67
2023/10/13 11:38:58;;;;;;;;;;;25.40;53.30;;;;;;5079991;28;20027;-67
2023/10/13 11:41:34;;;;;;;;;;;25.40;53.20;;;;;;5081224;28;19925;-67
2023/10/13 11:44:12;;;;;;;;;;;25.40;53.30;;;;;;5085443;28;19930;-65
2023/10/13 11:49:33;;;;;;;;;;;25.40;53.40;;;;;;5076221;28;20445;-64
2023/10/13 11:52:15;;;;;;;;;;;25.50;53.50;;;;;;5069253;28;19925;-63
2023/10/13 11:54:43;;;;;;;;;;;25.50;53.30;;;;;;5077189;28;20054;-62
2023/10/13 11:57:10;;;;;;;;;;;25.50;53.30;;;;;;5075210;28;19963;-64
2023/10/13 11:59:44;;;;;;;;;;;25.50;53.30;;;;;;5079945;28;19942;-61
2023/10/13 12:04:51;;;;;;;;;;;25.50;53.30;;;;;;5077740;28;19925;-61
2023/10/13 12:07:39;;;;;;;;;;;25.50;53.20;;;;;;5089110;28;19931;-61
2023/10/13 12:10:15;;;;;;;;;;;25.50;53.30;;;;;;5094474;28;19924;-61
2023/10/13 12:12:43;;;;;;;;;;;25.40;53.10;;;;;;5083708;28;20347;-61
2023/10/13 12:15:14;;;;;;;;;;;25.50;53.10;;;;;;5082362;28;20399;-61
2023/10/13 12:17:44;;;;;;;;;;;25.40;53.00;;;;;;5082010;28;19930;-60
2023/10/13 12:20:18;;;;;;;;;;;25.40;53.00;;;;;;5079478;28;19928;-60
2023/10/13 12:22:55;;;;;;;;;;;25.40;53.10;;;;;;5080278;28;21312;-60
2023/10/13 12:25:25;;;;;;;;;;;25.40;53.10;;;;;;5086289;28;20441;-60
2023/10/13 12:27:57;;;;;;;;;;;25.40;53.00;;;;;;5082231;28;19932;-60
2023/10/13 12:33:11;;;;;;;;;;;25.40;52.90;;;;;;5082595;28;20372;-60
2023/10/13 12:35:58;;;;;;;;;;;25.40;52.80;;;;;;5081541;28;19932;-60
2023/10/13 12:49:49;;;;;;;;;;;25.40;53.00;;;;;;5078364;28;19959;-60
2023/10/13 12:52:16;;;;;;;;;;;25.40;52.90;;;;;;5073941;28;19931;-61
2023/10/13 12:54:47;;;;;;;;;;;25.40;52.90;;;;;;5085326;28;20368;-59
2023/10/13 12:57:15;;;;;;;;;;;25.30;53.00;;;;;;5079797;28;19969;-60
2023/10/13 12:59:43;;;;;;;;;;;25.30;53.10;;;;;;5091525;28;19931;-60
2023/10/13 13:02:15;;;;;;;;;;;25.30;53.30;;;;;;5081906;28;19931;-59
2023/10/13 13:04:48;;;;;;;;;;;25.30;53.40;;;;;;5082993;28;19924;-60
2023/10/13 13:07:15;;;;;;;;;;;25.20;53.40;;;;;;5072332;28;19955;-60
2023/10/13 13:09:42;;;;;;;;;;;25.30;53.50;;;;;;5079980;28;20014;-61
2023/10/13 13:12:12;;;;;;;;;;;25.30;53.40;;;;;;5082847;28;20388;-60
2023/10/13 13:14:45;;;;;;;;;;;25.20;53.30;;;;;;5088852;28;19924;-61
2023/10/13 13:17:13;;;;;;;;;;;25.20;53.40;;;;;;5081746;28;19940;-61
2023/10/13 13:19:40;;;;;;;;;;;25.20;53.50;;;;;;5083578;28;20037;-60
2023/10/13 13:22:11;;;;;;;;;;;25.20;53.80;;;;;;5089656;28;19970;-60
2023/10/13 13:24:43;;;;;;;;;;;25.20;54.70;;;;;;5088428;28;19924;-61
2023/10/13 13:27:13;;;;;;;;;;;25.20;54.70;;;;;;5093930;28;19924;-60
2023/10/13 13:29:41;;;;;;;;;;;25.20;54.60;;;;;;5093819;28;19970;-60
2023/10/13 13:32:23;;;;;;;;;;;25.20;54.60;;;;;;5093676;28;19924;-60
2023/10/13 13:35:03;;;;;;;;;;;25.20;54.50;;;;;;5093645;28;19971;-60
2023/10/13 13:37:30;;;;;;;;;;;25.20;54.30;;;;;;5093627;28;19928;-61
2023/10/13 13:40:13;;;;;;;;;;;25.20;54.10;;;;;;5094208;28;19991;-60
2023/10/13 13:42:43;;;;;;;;;;;25.20;54.00;;;;;;5088950;28;19928;-61
2023/10/13 13:45:21;;;;;;;;;;;25.20;53.90;;;;;;5084724;28;19924;-60
2023/10/13 13:47:53;;;;;;;;;;;25.20;53.80;;;;;;5093710;28;20014;-61
2023/10/13 13:50:28;;;;;;;;;;;25.20;53.70;;;;;;5093626;28;19930;-60
2023/10/13 13:52:56;;;;;;;;;;;25.20;53.70;;;;;;5080580;28;19929;-60
2023/10/13 13:55:28;;;;;;;;;;;25.20;53.60;;;;;;5056067;28;20333;-61
2023/10/13 13:57:56;;;;;;;;;;;25.10;53.50;;;;;;5073374;28;19935;-62
2023/10/13 14:00:36;;;;;;;;;;;25.10;53.50;;;;;;5073717;28;20377;-62
2023/10/13 14:03:05;;;;;;;;;;;25.10;53.40;;;;;;5086364;28;19970;-61
2023/10/13 14:05:33;;;;;;;;;;;25.10;53.50;;;;;;5093635;28;19931;-61
2023/10/13 14:08:00;;;;;;;;;;;25.10;53.50;;;;;;5093478;28;19931;-61
2023/10/13 14:11:10;;;;;;;;;;;25.10;53.50;;;;;;5093392;28;19967;-62
2023/10/13 14:13:14;;;;;;;;;;;25.10;53.50;;;;;;5093236;28;19924;-62
2023/10/13 14:15:43;;;;;;;;;;;25.10;53.50;;;;;;5093228;28;19971;-62
2023/10/13 14:18:17;;;;;;;;;;;25.10;53.50;;;;;;5093124;28;19924;-61
2023/10/13 14:20:44;;;;;;;;;;;25.10;53.50;;;;;;5093482;28;19925;-61
2023/10/13 14:23:12;;;;;;;;;;;25.10;53.50;;;;;;5093624;28;19924;-62
2023/10/13 14:25:45;;;;;;;;;;;25.10;53.50;;;;;;5092104;28;20018;-61
2023/10/13 14:28:17;;;;;;;;;;;25.10;53.60;;;;;;5093297;28;19928;-62
2023/10/13 14:30:45;;;;;;;;;;;25.10;53.60;;;;;;5092782;28;19924;-62
2023/10/13 14:33:12;;;;;;;;;;;25.10;53.60;;;;;;5092738;28;19930;-62
2023/10/13 14:35:39;;;;;;;;;;;25.10;53.60;;;;;;5076904;28;20350;-61
2023/10/13 14:38:07;;;;;;;;;;;25.10;53.60;;;;;;5073040;28;20356;-61
2023/10/13 14:40:34;;;;;;;;;;;25.10;53.60;;;;;;5073148;28;20346;-61
2023/10/13 14:43:01;;;;;;;;;;;25.10;53.70;;;;;;5073308;28;19925;-62
2023/10/13 14:45:28;;;;;;;;;;;25.10;53.70;;;;;;5073015;28;19924;-61
2023/10/13 14:47:55;;;;;;;;;;;25.10;53.70;;;;;;5073151;28;19924;-62
2023/10/13 14:50:22;;;;;;;;;;;25.10;53.70;;;;;;5073157;28;19925;-61
2023/10/13 14:52:50;;;;;;;;;;;25.00;53.70;;;;;;5073965;28;19924;-63
2023/10/13 14:55:21;;;;;;;;;;;25.00;53.70;;;;;;5072808;28;19925;-62
2023/10/13 14:57:49;;;;;;;;;;;25.00;53.80;;;;;;5087533;28;20380;-62
2023/10/13 15:00:27;;;;;;;;;;;25.00;53.80;;;;;;5076454;28;20022;-62
2023/10/13 15:02:54;;;;;;;;;;;25.00;53.80;;;;;;5076176;28;19971;-62
2023/10/13 15:05:22;;;;;;;;;;;25.00;53.90;;;;;;5088872;28;19931;-61
2023/10/13 15:07:51;;;;;;;;;;;25.00;53.90;;;;;;5096707;28;20283;-62
2023/10/13 15:10:18;;;;;;;;;;;25.00;53.90;;;;;;5096911;28;19974;-62
2023/10/13 15:12:45;;;;;;;;;;;25.00;53.90;;;;;;5096666;28;19924;-61
2023/10/13 15:15:19;;;;;;;;;;;25.00;54.00;;;;;;5096495;28;20384;-61
2023/10/13 15:17:47;;;;;;;;;;;24.90;54.00;;;;;;5095582;28;19942;-61
2023/10/13 15:20:18;;;;;;;;;;;24.90;54.60;;;;;;5094081;28;19931;-62
2023/10/13 15:22:48;;;;;;;;;;;24.90;54.10;;;;;;5095242;28;19928;-62
2023/10/13 15:25:29;;;;;;;;;;;24.90;54.10;;;;;;5084982;28;20019;-61
2023/10/13 15:28:02;;;;;;;;;;;24.90;54.10;;;;;;5082881;28;19998;-62
2023/10/13 15:30:44;;;;;;;;;;;24.90;54.20;;;;;;5096222;28;19924;-62
2023/10/13 15:33:12;;;;;;;;;;;24.90;54.20;;;;;;5080740;28;19929;-61
2023/10/13 15:35:42;;;;;;;;;;;24.90;54.30;;;;;;5075388;28;19925;-62
2023/10/13 15:38:12;;;;;;;;;;;24.80;54.30;;;;;;5076012;28;19931;-62
2023/10/13 15:40:43;;;;;;;;;;;24.80;54.30;;;;;;5093540;28;19928;-62
2023/10/13 15:43:10;;;;;;;;;;;24.80;54.30;;;;;;5096043;28;19978;-62
2023/10/13 15:45:42;;;;;;;;;;;24.80;54.40;;;;;;5095642;28;20014;-62
2023/10/13 15:48:14;;;;;;;;;;;24.70;54.40;;;;;;5083027;28;19928;-61
2023/10/13 15:50:49;;;;;;;;;;;24.80;54.50;;;;;;5076074;28;19928;-61
2023/10/13 15:53:17;;;;;;;;;;;24.70;54.50;;;;;;5077924;28;19928;-61
2023/10/13 15:55:45;;;;;;;;;;;24.70;54.50;;;;;;5075887;28;19960;-61
2023/10/13 15:58:13;;;;;;;;;;;24.70;54.60;;;;;;5075383;28;19978;-61
2023/10/13 16:00:41;;;;;;;;;;;24.70;54.70;;;;;;5075675;28;19971;-61
2023/10/13 16:03:11;;;;;;;;;;;24.70;54.70;;;;;;5076950;28;19924;-61
2023/10/13 16:05:42;;;;;;;;;;;24.60;54.70;;;;;;5084368;28;19930;-61
2023/10/13 16:08:13;;;;;;;;;;;24.60;54.80;;;;;;5094379;28;19931;-62
2023/10/13 16:10:40;;;;;;;;;;;24.60;54.80;;;;;;5078530;28;19938;-62
2023/10/13 16:13:15;;;;;;;;;;;24.60;54.90;;;;;;5075191;28;19924;-62
2023/10/13 16:15:44;;;;;;;;;;;24.60;55.00;;;;;;5075197;28;19924;-62
2023/10/13 16:18:11;;;;;;;;;;;24.50;55.00;;;;;;5075586;28;19946;-61
2023/10/13 16:20:39;;;;;;;;;;;24.50;55.00;;;;;;5074883;28;19931;-61
2023/10/13 16:23:08;;;;;;;;;;;24.50;55.00;;;;;;5074621;28;19934;-62
2023/10/13 16:25:35;;;;;;;;;;;24.50;55.10;;;;;;5080620;28;20363;-61
2023/10/13 16:28:02;;;;;;;;;;;24.50;55.20;;;;;;5081259;28;20018;-62
2023/10/13 16:30:29;;;;;;;;;;;24.50;55.20;;;;;;5078208;28;19931;-62
2023/10/13 16:32:57;;;;;;;;;;;24.50;55.20;;;;;;5095359;28;20367;-61
2023/10/13 16:35:23;;;;;;;;;;;24.40;55.20;;;;;;5095118;28;19932;-62
2023/10/13 16:37:50;;;;;;;;;;;24.40;55.30;;;;;;5095031;28;19924;-62
2023/10/13 16:40:18;;;;;;;;;;;24.40;55.30;;;;;;5095064;28;19932;-61
2023/10/13 16:42:45;;;;;;;;;;;24.40;55.30;;;;;;5094873;28;19924;-62
2023/10/13 16:45:20;;;;;;;;;;;24.40;55.30;;;;;;5093912;28;19923;-61
2023/10/13 16:47:48;;;;;;;;;;;24.40;55.40;;;;;;5094805;28;19924;-61
2023/10/13 16:50:20;;;;;;;;;;;24.40;55.40;;;;;;5094805;28;19928;-62
2023/10/13 16:52:47;;;;;;;;;;;24.30;55.40;;;;;;5094788;28;19924;-61
2023/10/13 16:55:19;;;;;;;;;;;24.30;55.40;;;;;;5094765;28;19978;-61
2023/10/13 16:57:50;;;;;;;;;;;24.30;55.50;;;;;;5094944;28;20351;-61
2023/10/13 17:00:18;;;;;;;;;;;24.30;55.50;;;;;;5094586;28;20011;-62
2023/10/13 17:02:45;;;;;;;;;;;24.30;55.60;;;;;;5083171;28;20299;-61
2023/10/13 17:05:17;;;;;;;;;;;24.30;55.60;;;;;;5074632;28;20015;-62
2023/10/13 17:07:46;;;;;;;;;;;24.30;55.60;;;;;;5074332;28;20288;-61
2023/10/13 17:10:14;;;;;;;;;;;24.20;55.60;;;;;;5074308;28;19931;-61
2023/10/13 17:12:42;;;;;;;;;;;24.20;55.70;;;;;;5074150;28;19924;-61
2023/10/13 17:15:19;;;;;;;;;;;24.20;55.70;;;;;;5073928;28;20380;-62
2023/10/13 17:17:47;;;;;;;;;;;24.20;55.70;;;;;;5074224;28;19929;-61